Time;durP1;ratioP1;P1;durP2;ratioP2;P2;SDS_P1;SDS_P2;PMS_P1;PMS_P2;Temp;Humidity;BMP_temperature;BMP_pressure;BME280_temperature;BME280_humidity;BME280_pressure;Samples;Min_cycle;Max_cycle;Signal;HPM_P1;HPM_P2
2023/01/30 00:01:52;;;;;;;;;;;;;;;21.93;37.63;101903.03;7260613;19;153958;-79
2023/01/30 00:04:19;;;;;;;;;;;;;;;21.95;37.47;101912.00;7264593;19;154116;-79
2023/01/30 00:06:45;;;;;;;;;;;;;;;21.95;37.32;101915.66;7265300;19;153765;-79
2023/01/30 00:09:14;;;;;;;;;;;;;;;21.94;37.57;101913.16;7264389;19;153975;-79
2023/01/30 00:11:41;;;;;;;;;;;;;;;21.95;37.48;101904.41;7260972;19;152850;-79
2023/01/30 00:14:08;;;;;;;;;;;;;;;21.97;37.48;101915.38;7263376;19;154261;-78
2023/01/30 00:16:34;;;;;;;;;;;;;;;21.98;37.88;101917.06;7265914;19;153919;-79
2023/01/30 00:19:01;;;;;;;;;;;;;;;21.97;37.35;101904.97;7265166;19;154033;-79
2023/01/30 00:21:28;;;;;;;;;;;;;;;21.97;37.90;101904.13;7270332;19;153481;-79
2023/01/30 00:23:55;;;;;;;;;;;;;;;21.96;37.56;101897.66;7265396;19;154665;-80
2023/01/30 00:26:22;;;;;;;;;;;;;;;21.98;37.58;101901.03;7263909;19;153848;-80
2023/01/30 00:28:49;;;;;;;;;;;;;;;21.98;37.49;101897.38;7262678;19;154112;-79
2023/01/30 00:31:15;;;;;;;;;;;;;;;21.97;37.85;101906.94;7263308;19;153104;-79
2023/01/30 00:33:42;;;;;;;;;;;;;;;21.94;38.06;101904.72;7267044;19;153315;-78
2023/01/30 00:36:10;;;;;;;;;;;;;;;21.96;37.95;101896.81;7267391;19;154184;-78
2023/01/30 00:38:36;;;;;;;;;;;;;;;21.95;37.97;101886.69;7268302;19;154248;-79
2023/01/30 00:41:03;;;;;;;;;;;;;;;21.92;38.11;101890.91;7264275;19;153871;-78
2023/01/30 00:48:50;;;;;;;;;;;;;;;21.87;38.32;101895.72;7264789;19;155466;-78
2023/01/30 00:51:17;;;;;;;;;;;;;;;21.87;38.41;101895.72;7264697;19;155541;-80
2023/01/30 00:53:44;;;;;;;;;;;;;;;21.84;38.45;101896.34;7264989;19;153827;-80
2023/01/30 00:56:10;;;;;;;;;;;;;;;21.80;38.70;101893.28;7264815;19;153549;-78
2023/01/30 00:58:37;;;;;;;;;;;;;;;21.82;38.71;101887.34;7264677;19;154141;-78
2023/01/30 01:01:04;;;;;;;;;;;;;;;21.78;38.79;101887.09;7261438;19;153884;-78
2023/01/30 01:03:31;;;;;;;;;;;;;;;21.76;38.79;101886.53;7263104;19;154455;-79
2023/01/30 01:05:57;;;;;;;;;;;;;;;21.73;38.64;101887.13;7267406;19;153998;-78
2023/01/30 01:08:24;;;;;;;;;;;;;;;21.70;38.55;101877.31;7260296;19;153346;-78
2023/01/30 01:10:51;;;;;;;;;;;;;;;21.67;38.78;101872.25;7262457;19;153208;-78
2023/01/30 01:13:17;;;;;;;;;;;;;;;21.67;38.74;101865.78;7264226;19;154749;-77
2023/01/30 01:15:44;;;;;;;;;;;;;;;21.62;39.17;101858.22;7262753;19;152853;-78
2023/01/30 01:18:11;;;;;;;;;;;;;;;21.59;39.02;101853.22;7261541;19;154490;-77
2023/01/30 01:20:38;;;;;;;;;;;;;;;21.59;38.81;101853.22;7260440;19;155245;-78
2023/01/30 01:23:04;;;;;;;;;;;;;;;21.56;38.84;101853.81;7264377;19;157566;-77
2023/01/30 01:25:31;;;;;;;;;;;;;;;21.55;39.20;101859.72;7265733;19;154232;-78
2023/01/30 01:27:58;;;;;;;;;;;;;;;21.52;39.34;101851.88;7267341;19;154565;-78
2023/01/30 01:30:25;;;;;;;;;;;;;;;21.51;39.22;101853.84;7262339;19;153752;-77
2023/01/30 01:32:52;;;;;;;;;;;;;;;21.46;39.46;101858.66;7262588;19;153035;-78
2023/01/30 01:35:18;;;;;;;;;;;;;;;21.46;39.11;101851.06;7261467;19;155215;-77
2023/01/30 01:37:45;;;;;;;;;;;;;;;21.42;39.23;101837.88;7261508;19;152896;-78
2023/01/30 01:42:52;;;;;;;;;;;;;;;21.39;39.53;101832.84;7260283;19;153580;-78
2023/01/30 01:45:21;;;;;;;;;;;;;;;21.37;39.39;101823.84;7265172;19;153407;-78
2023/01/30 01:47:56;;;;;;;;;;;;;;;21.34;39.38;101818.84;7270653;19;153011;-78
2023/01/30 01:50:25;;;;;;;;;;;;;;;21.33;39.32;101811.53;7263827;19;152803;-78
2023/01/30 01:52:55;;;;;;;;;;;;;;;21.28;39.55;101809.59;7259915;19;155134;-78
2023/01/30 01:55:23;;;;;;;;;;;;;;;21.26;39.60;101820.28;7256773;19;153605;-78
2023/01/30 01:57:53;;;;;;;;;;;;;;;21.24;39.39;101828.19;7259394;19;153163;-78
2023/01/30 02:00:20;;;;;;;;;;;;;;;21.21;39.26;101811.91;7260929;19;153588;-79
2023/01/30 02:02:57;;;;;;;;;;;;;;;21.18;39.32;101821.75;7261314;19;154474;-78
2023/01/30 02:05:29;;;;;;;;;;;;;;;21.17;39.43;101824.84;7254325;19;153391;-78
2023/01/30 02:08:02;;;;;;;;;;;;;;;21.13;39.74;101820.94;7259685;19;155751;-78
2023/01/30 02:10:35;;;;;;;;;;;;;;;21.11;39.70;101821.22;7263391;19;155978;-78
2023/01/30 02:13:02;;;;;;;;;;;;;;;21.10;39.87;101827.97;7261936;19;155304;-77
2023/01/30 02:15:29;;;;;;;;;;;;;;;21.09;39.82;101823.47;7260785;19;155399;-79
2023/01/30 02:17:56;;;;;;;;;;;;;;;21.06;39.84;101832.47;7261456;19;154253;-77
2023/01/30 02:20:32;;;;;;;;;;;;;;;21.03;39.78;101821.00;7258903;19;153757;-78
2023/01/30 02:23:00;;;;;;;;;;;;;;;21.00;39.93;101813.13;7263543;19;153767;-79
2023/01/30 02:25:37;;;;;;;;;;;;;;;20.96;39.78;101820.47;7260898;19;153370;-78
2023/01/30 02:28:13;;;;;;;;;;;;;;;20.94;40.14;101825.53;7260133;19;155385;-77
2023/01/30 02:30:59;;;;;;;;;;;;;;;20.89;40.10;101825.56;7255393;19;154397;-78
2023/01/30 02:33:38;;;;;;;;;;;;;;;20.88;40.23;101830.34;7267492;19;154834;-79
2023/01/30 02:36:15;;;;;;;;;;;;;;;20.86;40.43;101819.38;7256621;19;153387;-79
2023/01/30 02:38:52;;;;;;;;;;;;;;;20.84;40.14;101832.91;7257398;19;153371;-78
2023/01/30 02:41:29;;;;;;;;;;;;;;;20.83;40.08;101828.41;7258480;19;153068;-78
2023/01/30 02:43:56;;;;;;;;;;;;;;;20.79;40.46;101830.13;7258019;19;154242;-78
2023/01/30 02:46:29;;;;;;;;;;;;;;;20.78;40.43;101820.00;7259896;19;154688;-79
2023/01/30 02:48:58;;;;;;;;;;;;;;;20.75;40.25;101837.44;7262369;19;153946;-78
2023/01/30 02:51:28;;;;;;;;;;;;;;;20.73;40.69;101830.41;7257646;19;156227;-79
2023/01/30 02:53:55;;;;;;;;;;;;;;;20.72;40.70;101840.81;7258761;19;152923;-78
2023/01/30 02:56:22;;;;;;;;;;;;;;;20.72;40.46;101842.75;7264789;19;154584;-78
2023/01/30 02:58:51;;;;;;;;;;;;;;;20.70;40.88;101851.50;7257723;19;153797;-78
2023/01/30 03:01:31;;;;;;;;;;;;;;;20.68;40.42;101853.75;7259785;19;154437;-78
2023/01/30 03:04:26;;;;;;;;;;;;;;;20.64;40.68;101855.44;7256774;19;155591;-78
2023/01/30 03:06:53;;;;;;;;;;;;;;;20.64;40.91;101860.22;7260464;19;153343;-79
2023/01/30 03:09:35;;;;;;;;;;;;;;;20.60;40.83;101848.72;7257011;19;153832;-78
2023/01/30 03:12:12;;;;;;;;;;;;;;;20.58;40.84;101853.78;7255330;19;153477;-80
2023/01/30 03:14:45;;;;;;;;;;;;;;;20.57;41.03;101854.09;7256637;19;153801;-78
2023/01/30 03:17:13;;;;;;;;;;;;;;;20.52;41.18;101852.13;7259837;19;154003;-79
2023/01/30 03:19:40;;;;;;;;;;;;;;;20.52;40.89;101857.75;7262661;19;155056;-79
2023/01/30 03:22:07;;;;;;;;;;;;;;;20.54;41.24;101861.09;7262229;19;153543;-78
2023/01/30 03:24:34;;;;;;;;;;;;;;;20.51;41.29;101858.03;7263173;19;156200;-78
2023/01/30 03:27:04;;;;;;;;;;;;;;;20.47;41.56;101871.81;7266566;19;152698;-79
2023/01/30 03:29:31;;;;;;;;;;;;;;;20.45;41.18;101876.84;7265032;19;153306;-78
2023/01/30 03:31:58;;;;;;;;;;;;;;;20.45;41.38;101876.84;7258917;19;152897;-78
2023/01/30 03:34:25;;;;;;;;;;;;;;;20.45;41.49;101862.81;7263151;19;153895;-78
2023/01/30 03:36:51;;;;;;;;;;;;;;;20.42;41.32;101860.59;7262420;19;152638;-78
2023/01/30 03:39:18;;;;;;;;;;;;;;;20.42;41.71;101867.03;7260673;19;153794;-78
2023/01/30 03:41:45;;;;;;;;;;;;;;;20.41;41.87;101861.69;7268580;19;154345;-78
2023/01/30 03:44:12;;;;;;;;;;;;;;;20.38;41.97;101868.75;7264459;19;155926;-78
2023/01/30 03:46:39;;;;;;;;;;;;;;;20.37;41.72;101867.06;7265121;19;153942;-78
2023/01/30 03:49:06;;;;;;;;;;;;;;;20.34;41.72;101872.41;7264877;19;154343;-78
2023/01/30 03:51:33;;;;;;;;;;;;;;;20.35;42.15;101865.69;7261128;19;156341;-77
2023/01/30 03:54:00;;;;;;;;;;;;;;;20.33;42.08;101867.91;7260855;19;153988;-78
2023/01/30 03:56:26;;;;;;;;;;;;;;;20.32;42.16;101866.22;7262705;19;154124;-79
2023/01/30 03:58:53;;;;;;;;;;;;;;;20.30;41.89;101860.91;7263362;19;153973;-79
2023/01/30 04:01:20;;;;;;;;;;;;;;;20.29;41.80;101861.16;7271804;19;153393;-79
2023/01/30 04:03:47;;;;;;;;;;;;;;;20.28;41.85;101859.47;7262014;19;154591;-78
2023/01/30 04:06:14;;;;;;;;;;;;;;;20.26;41.91;101865.34;7264712;19;153462;-77
2023/01/30 04:08:41;;;;;;;;;;;;;;;20.24;41.97;101862.00;7265760;19;153714;-79
2023/01/30 04:11:08;;;;;;;;;;;;;;;20.25;42.28;101865.66;7259135;19;156320;-78
2023/01/30 04:13:34;;;;;;;;;;;;;;;20.21;42.04;101864.56;7263869;19;152951;-78
2023/01/30 04:16:18;;;;;;;;;;;;;;;20.21;42.08;101870.16;7264296;19;155256;-78
2023/01/30 04:18:45;;;;;;;;;;;;;;;20.20;42.18;101866.50;7262374;19;153919;-79
2023/01/30 04:21:12;;;;;;;;;;;;;;;20.16;42.33;101878.59;7264198;19;155282;-78
2023/01/30 04:23:39;;;;;;;;;;;;;;;20.17;42.22;101874.66;7270061;19;154050;-78
2023/01/30 04:26:06;;;;;;;;;;;;;;;20.15;42.49;101877.75;7265181;19;152897;-79
2023/01/30 04:28:33;;;;;;;;;;;;;;;20.13;42.43;101874.38;7260535;19;154382;-78
2023/01/30 04:31:00;;;;;;;;;;;;;;;20.13;42.41;101876.31;7262219;19;153370;-78
2023/01/30 04:33:27;;;;;;;;;;;;;;;20.13;42.72;101876.31;7262624;19;154224;-80
2023/01/30 04:35:54;;;;;;;;;;;;;;;20.06;42.78;101870.19;7263697;19;153649;-78
2023/01/30 04:38:22;;;;;;;;;;;;;;;20.09;42.46;101867.63;7262007;19;154603;-77
2023/01/30 04:40:51;;;;;;;;;;;;;;;20.06;42.87;101887.84;7262287;19;154186;-78
2023/01/30 04:43:18;;;;;;;;;;;;;;;20.06;42.66;101896.28;7264665;19;153444;-78
2023/01/30 04:45:45;;;;;;;;;;;;;;;20.04;43.00;101892.06;7267292;19;154694;-78
2023/01/30 04:48:12;;;;;;;;;;;;;;;20.04;42.69;101903.28;7262724;19;154683;-78
2023/01/30 04:50:39;;;;;;;;;;;;;;;20.02;43.05;101905.53;7264054;19;158264;-78
2023/01/30 04:53:06;;;;;;;;;;;;;;;20.02;43.09;101909.19;7262917;19;153432;-78
2023/01/30 04:55:33;;;;;;;;;;;;;;;19.98;43.12;101917.31;7260704;19;156286;-78
2023/01/30 04:58:00;;;;;;;;;;;;;;;20.00;43.23;101919.84;7262334;19;153763;-78
2023/01/30 05:00:27;;;;;;;;;;;;;;;19.97;42.98;101934.44;7264502;19;153699;-78
2023/01/30 05:02:55;;;;;;;;;;;;;;;19.97;43.18;101926.84;7264209;19;153475;-78
2023/01/30 05:05:22;;;;;;;;;;;;;;;19.95;43.46;101936.66;7263134;19;155489;-78
2023/01/30 05:07:49;;;;;;;;;;;;;;;19.94;43.10;101932.19;7273410;19;153633;-78
2023/01/30 05:10:16;;;;;;;;;;;;;;;19.95;43.04;101933.84;7263945;19;154144;-78
2023/01/30 05:12:43;;;;;;;;;;;;;;;19.92;43.13;101938.06;7260016;19;152457;-78
2023/01/30 05:15:10;;;;;;;;;;;;;;;19.91;43.08;101932.72;7264582;19;155892;-80
2023/01/30 05:17:38;;;;;;;;;;;;;;;19.90;43.57;101928.25;7263679;19;156333;-78
2023/01/30 05:20:06;;;;;;;;;;;;;;;19.90;43.34;101931.88;7261816;19;154549;-77
2023/01/30 05:22:33;;;;;;;;;;;;;;;19.88;43.48;101934.16;7266426;19;154577;-78
2023/01/30 05:25:00;;;;;;;;;;;;;;;19.90;43.35;101929.09;7263635;19;154828;-78
2023/01/30 05:27:27;;;;;;;;;;;;;;;19.90;43.50;101922.63;7261254;19;154074;-79
2023/01/30 05:29:53;;;;;;;;;;;;;;;19.84;43.53;101927.41;7267010;19;153539;-79
2023/01/30 05:32:20;;;;;;;;;;;;;;;19.88;43.32;101941.72;7262080;19;152176;-78
2023/01/30 05:34:48;;;;;;;;;;;;;;;19.84;43.56;101933.03;7258357;19;154944;-78
2023/01/30 05:37:15;;;;;;;;;;;;;;;19.83;43.58;101945.38;7257744;19;156503;-78
2023/01/30 05:39:41;;;;;;;;;;;;;;;19.82;43.47;101954.03;7258520;19;153069;-78
2023/01/30 05:42:08;;;;;;;;;;;;;;;19.81;43.48;101958.81;7261567;19;154867;-78
2023/01/30 05:44:35;;;;;;;;;;;;;;;19.80;43.63;101956.31;7256538;19;154150;-78
2023/01/30 05:47:02;;;;;;;;;;;;;;;19.79;43.82;101958.25;7259297;19;153606;-78
2023/01/30 05:49:29;;;;;;;;;;;;;;;19.81;43.45;101956.00;7260530;19;154216;-78
2023/01/30 05:51:56;;;;;;;;;;;;;;;19.82;43.75;101962.47;7261630;19;152473;-78
2023/01/30 05:54:22;;;;;;;;;;;;;;;19.81;43.94;101956.00;7261213;19;153661;-78
2023/01/30 05:56:49;;;;;;;;;;;;;;;19.82;43.62;101952.09;7258350;19;154815;-78
2023/01/30 05:59:17;;;;;;;;;;;;;;;19.85;43.76;101956.31;7258209;19;154147;-78
2023/01/30 06:01:44;;;;;;;;;;;;;;;19.88;44.10;101955.75;7260181;19;154608;-79
2023/01/30 06:04:11;;;;;;;;;;;;;;;19.91;44.63;101963.59;7258096;19;156304;-81
2023/01/30 06:06:37;;;;;;;;;;;;;;;19.93;44.83;101964.16;7261440;19;152963;-78
2023/01/30 06:09:04;;;;;;;;;;;;;;;19.97;44.94;101965.28;7263510;19;153855;-79
2023/01/30 06:11:31;;;;;;;;;;;;;;;20.02;44.64;101984.09;7269127;19;154818;-79
2023/01/30 06:13:58;;;;;;;;;;;;;;;20.09;44.43;101990.25;7257911;19;154890;-81
2023/01/30 06:16:24;;;;;;;;;;;;;;;20.13;44.78;101980.97;7257942;19;154071;-79
2023/01/30 06:18:52;;;;;;;;;;;;;;;20.21;44.49;101977.63;7259119;19;153952;-78
2023/01/30 06:21:19;;;;;;;;;;;;;;;20.28;44.43;101983.78;7258841;19;153970;-78
2023/01/30 06:23:46;;;;;;;;;;;;;;;20.34;44.42;101987.47;7257749;19;155160;-77
2023/01/30 06:26:13;;;;;;;;;;;;;;;20.39;44.29;101985.53;7257617;19;153896;-77
2023/01/30 06:28:40;;;;;;;;;;;;;;;20.46;43.78;101982.41;7256441;19;153581;-78
2023/01/30 06:31:07;;;;;;;;;;;;;;;20.50;43.83;101989.13;7255562;19;154321;-77
2023/01/30 06:33:35;;;;;;;;;;;;;;;20.55;44.04;101997.56;7262588;19;152853;-78
2023/01/30 06:36:02;;;;;;;;;;;;;;;20.60;43.85;102005.97;7258534;19;153289;-76
2023/01/30 06:38:28;;;;;;;;;;;;;;;20.67;43.94;102014.13;7258828;19;153658;-76
2023/01/30 06:40:55;;;;;;;;;;;;;;;20.74;43.71;102011.84;7257438;19;153637;-77
2023/01/30 06:43:22;;;;;;;;;;;;;;;20.78;43.35;102016.59;7255001;19;155738;-78
2023/01/30 06:45:49;;;;;;;;;;;;;;;20.84;43.17;102012.66;7255891;19;153734;-77
2023/01/30 06:48:16;;;;;;;;;;;;;;;20.89;43.22;102019.41;7258462;19;154033;-78
2023/01/30 06:50:45;;;;;;;;;;;;;;;20.94;42.83;102025.81;7253765;19;154393;-77
2023/01/30 06:53:12;;;;;;;;;;;;;;;21.00;42.83;102035.09;7257047;19;153909;-78
2023/01/30 06:55:39;;;;;;;;;;;;;;;21.02;43.17;102039.31;7264257;19;153380;-79
2023/01/30 06:58:08;;;;;;;;;;;;;;;21.08;42.57;102040.13;7259526;19;153678;-78
2023/01/30 07:00:35;;;;;;;;;;;;;;;21.13;42.69;102045.75;7256430;19;154743;-79
2023/01/30 07:03:02;;;;;;;;;;;;;;;21.17;42.25;102047.72;7255177;19;157180;-78
2023/01/30 07:05:29;;;;;;;;;;;;;;;21.21;42.65;102057.25;7254557;19;152518;-78
2023/01/30 07:07:55;;;;;;;;;;;;;;;21.24;42.16;102058.66;7256802;19;154869;-78
2023/01/30 07:10:24;;;;;;;;;;;;;;;21.29;42.32;102072.69;7253298;19;156734;-79
2023/01/30 07:12:52;;;;;;;;;;;;;;;21.32;42.29;102077.75;7254167;19;154065;-79
2023/01/30 07:15:19;;;;;;;;;;;;;;;21.36;42.84;102078.00;7254284;19;155075;-80
2023/01/30 07:17:47;;;;;;;;;;;;;;;21.39;42.32;102083.91;7260887;19;156629;-78
2023/01/30 07:20:14;;;;;;;;;;;;;;;21.42;42.17;102103.03;7255560;19;155644;-77
2023/01/30 07:22:41;;;;;;;;;;;;;;;21.43;41.76;102101.06;7254833;19;154095;-77
2023/01/30 07:25:09;;;;;;;;;;;;;;;21.43;41.41;102106.69;7253994;19;153192;-78
2023/01/30 07:27:36;;;;;;;;;;;;;;;21.43;41.32;102115.97;7254327;19;154078;-77
2023/01/30 07:30:04;;;;;;;;;;;;;;;21.14;39.74;102121.38;7255908;19;157785;-77
2023/01/30 07:32:30;;;;;;;;;;;;;;;21.21;39.09;102127.50;7257765;19;153747;-78
2023/01/30 07:34:57;;;;;;;;;;;;;;;21.20;39.27;102136.25;7257965;19;154434;-79
2023/01/30 07:37:25;;;;;;;;;;;;;;;21.23;39.22;102121.63;7255971;19;154046;-77
2023/01/30 07:39:52;;;;;;;;;;;;;;;21.24;39.18;102134.56;7263706;19;153207;-77
2023/01/30 07:42:19;;;;;;;;;;;;;;;21.22;39.17;102140.44;7254426;19;153350;-79
2023/01/30 07:44:46;;;;;;;;;;;;;;;21.22;38.73;102148.03;7256627;19;153607;-77
2023/01/30 07:47:13;;;;;;;;;;;;;;;21.21;38.65;102150.00;7255548;19;154104;-78
2023/01/30 07:49:41;;;;;;;;;;;;;;;21.18;38.61;102144.97;7253005;19;158005;-78
2023/01/30 07:52:09;;;;;;;;;;;;;;;21.15;38.99;102147.50;7254953;19;152705;-77
2023/01/30 07:54:36;;;;;;;;;;;;;;;21.14;38.44;102149.47;7257397;19;153015;-77
2023/01/30 07:57:03;;;;;;;;;;;;;;;21.14;38.19;102151.44;7251647;19;156748;-77
2023/01/30 07:59:30;;;;;;;;;;;;;;;21.10;38.10;102165.19;7261774;19;154025;-78
2023/01/30 08:01:57;;;;;;;;;;;;;;;21.08;38.52;102160.94;7256403;19;153534;-78
2023/01/30 08:04:24;;;;;;;;;;;;;;;21.06;38.27;102155.63;7255328;19;153916;-78
2023/01/30 08:06:51;;;;;;;;;;;;;;;21.06;37.93;102163.22;7257983;19;153506;-78
2023/01/30 08:09:18;;;;;;;;;;;;;;;21.01;37.87;102155.63;7260758;19;153583;-78
2023/01/30 08:11:45;;;;;;;;;;;;;;;20.97;37.83;102148.06;7262491;19;153288;-76
2023/01/30 08:14:12;;;;;;;;;;;;;;;20.94;37.82;102137.38;7259357;19;153775;-78
2023/01/30 08:16:39;;;;;;;;;;;;;;;20.94;37.57;102137.38;7260896;19;156014;-78
2023/01/30 08:19:07;;;;;;;;;;;;;;;20.91;37.61;102124.72;7260785;19;152465;-77
2023/01/30 08:21:34;;;;;;;;;;;;;;;20.87;37.82;102134.84;7267080;19;154773;-77
2023/01/30 08:24:02;;;;;;;;;;;;;;;20.89;38.40;102140.19;7260967;19;153917;-79
2023/01/30 08:26:30;;;;;;;;;;;;;;;20.91;38.34;102151.97;7260677;19;154417;-76
2023/01/30 08:28:58;;;;;;;;;;;;;;;20.86;37.73;102142.44;7261517;19;154219;-78
2023/01/30 08:31:28;;;;;;;;;;;;;;;20.88;38.13;102153.41;7261315;19;155156;-76
2023/01/30 08:33:55;;;;;;;;;;;;;;;20.85;38.21;102159.56;7258362;19;153712;-76
2023/01/30 08:36:22;;;;;;;;;;;;;;;20.86;38.65;102166.88;7261014;19;153800;-77
2023/01/30 08:38:50;;;;;;;;;;;;;;;20.86;38.46;102172.50;7263381;19;153346;-78
2023/01/30 08:41:16;;;;;;;;;;;;;;;20.85;38.38;102168.84;7265068;19;153839;-77
2023/01/30 08:43:43;;;;;;;;;;;;;;;20.81;38.90;102164.91;7269506;19;154590;-77
2023/01/30 08:46:10;;;;;;;;;;;;;;;20.79;37.86;102175.59;7262921;19;153200;-79
2023/01/30 08:48:39;;;;;;;;;;;;;;;20.78;37.50;102179.53;7260103;19;156475;-76
2023/01/30 08:51:16;;;;;;;;;;;;;;;20.77;37.36;102169.41;7259586;19;154874;-76
2023/01/30 08:53:42;;;;;;;;;;;;;;;20.79;37.67;102174.75;7259303;19;154396;-78
2023/01/30 08:56:09;;;;;;;;;;;;;;;20.78;37.48;102185.13;7259276;19;155800;-77
2023/01/30 08:58:36;;;;;;;;;;;;;;;20.82;37.37;102197.50;7260349;19;153289;-77
2023/01/30 09:01:05;;;;;;;;;;;;;;;20.83;36.77;102193.56;7260889;19;154359;-77
2023/01/30 09:03:33;;;;;;;;;;;;;;;20.88;36.75;102189.06;7263617;19;155152;-78
2023/01/30 09:06:00;;;;;;;;;;;;;;;20.89;36.84;102190.78;7265957;19;153812;-78
2023/01/30 09:08:27;;;;;;;;;;;;;;;20.91;36.83;102199.75;7262734;19;153615;-77
2023/01/30 09:10:58;;;;;;;;;;;;;;;20.94;37.20;102218.88;7260937;19;154893;-77
2023/01/30 09:13:25;;;;;;;;;;;;;;;20.95;36.95;102212.09;7259329;19;155016;-77
2023/01/30 09:15:52;;;;;;;;;;;;;;;20.95;37.02;102229.81;7257997;19;154903;-77
2023/01/30 09:18:19;;;;;;;;;;;;;;;20.95;36.92;102220.53;7255431;19;154288;-77
2023/01/30 09:20:46;;;;;;;;;;;;;;;20.97;36.57;102227.56;7256947;19;155518;-77
2023/01/30 09:23:18;;;;;;;;;;;;;;;20.96;36.67;102209.03;7260210;19;153414;-78
2023/01/30 09:25:46;;;;;;;;;;;;;;;20.97;36.51;102210.72;7259195;19;153970;-73
2023/01/30 09:28:13;;;;;;;;;;;;;;;20.97;36.35;102207.06;7267311;19;153544;-73
2023/01/30 09:30:40;;;;;;;;;;;;;;;20.94;36.61;102200.00;7258068;19;154834;-73
2023/01/30 09:33:15;;;;;;;;;;;;;;;20.95;36.22;102201.72;7258138;19;154000;-74
2023/01/30 09:35:42;;;;;;;;;;;;;;;20.98;36.24;102214.38;7258625;19;153968;-74
2023/01/30 09:38:09;;;;;;;;;;;;;;;20.94;36.10;102211.25;7262367;19;153454;-74
2023/01/30 09:40:41;;;;;;;;;;;;;;;20.93;36.12;102206.78;7262350;19;154558;-73
2023/01/30 09:43:12;;;;;;;;;;;;;;;20.94;36.36;102210.44;7258937;19;157258;-73
2023/01/30 09:45:43;;;;;;;;;;;;;;;20.93;36.13;102209.59;7260716;19;153299;-73
2023/01/30 09:48:11;;;;;;;;;;;;;;;20.90;36.33;102215.75;7256131;19;156226;-74
2023/01/30 09:50:46;;;;;;;;;;;;;;;20.92;36.31;102216.34;7259306;19;155145;-74
2023/01/30 09:53:19;;;;;;;;;;;;;;;20.90;35.87;102223.34;7256585;19;153975;-73
2023/01/30 09:55:47;;;;;;;;;;;;;;;20.89;36.20;102239.38;7254851;19;155999;-73
2023/01/30 09:58:17;;;;;;;;;;;;;;;20.85;36.19;102238.22;7257388;19;154264;-76
2023/01/30 10:00:46;;;;;;;;;;;;;;;20.84;36.41;102240.22;7258522;19;154149;-73
2023/01/30 10:03:15;;;;;;;;;;;;;;;20.85;36.16;102241.88;7257571;19;154925;-73
2023/01/30 10:05:45;;;;;;;;;;;;;;;20.83;36.25;102237.66;7257253;19;156237;-73
2023/01/30 10:08:14;;;;;;;;;;;;;;;20.80;35.91;102241.88;7263044;19;155244;-73
2023/01/30 10:10:44;;;;;;;;;;;;;;;20.80;36.27;102243.84;7264709;19;154036;-74
2023/01/30 10:13:12;;;;;;;;;;;;;;;20.80;36.32;102244.69;7254596;19;154406;-73
2023/01/30 10:15:45;;;;;;;;;;;;;;;20.79;36.36;102243.00;7258659;19;154401;-73
2023/01/30 10:18:14;;;;;;;;;;;;;;;20.76;36.19;102249.16;7258610;19;152021;-73
2023/01/30 10:20:48;;;;;;;;;;;;;;;20.74;36.31;102247.78;7261041;19;154439;-73
2023/01/30 10:23:16;;;;;;;;;;;;;;;20.75;36.46;102255.09;7260624;19;155350;-73
2023/01/30 10:25:45;;;;;;;;;;;;;;;20.74;36.18;102268.28;7261238;19;153415;-74
2023/01/30 10:28:15;;;;;;;;;;;;;;;20.74;35.98;102273.91;7258616;19;154744;-74
2023/01/30 10:30:45;;;;;;;;;;;;;;;20.71;36.35;102263.22;7258482;19;154403;-74
2023/01/30 10:33:15;;;;;;;;;;;;;;;20.68;35.98;102260.09;7267457;19;153434;-74
2023/01/30 10:35:43;;;;;;;;;;;;;;;20.67;36.29;102258.44;7256881;19;154651;-74
2023/01/30 10:38:11;;;;;;;;;;;;;;;20.64;36.15;102254.22;7257849;19;153371;-74
2023/01/30 10:40:41;;;;;;;;;;;;;;;20.60;36.25;102257.84;7257603;19;153689;-74
2023/01/30 10:43:11;;;;;;;;;;;;;;;20.59;36.56;102253.34;7251712;19;154173;-74
2023/01/30 10:45:44;;;;;;;;;;;;;;;20.57;35.96;102259.25;7257364;19;153722;-74
2023/01/30 10:48:14;;;;;;;;;;;;;;;20.55;36.18;102261.50;7257688;19;153785;-74
2023/01/30 10:50:44;;;;;;;;;;;;;;;20.53;36.13;102254.47;7254342;19;156429;-74
2023/01/30 10:53:15;;;;;;;;;;;;;;;20.50;36.27;102255.84;7257574;19;154693;-74
2023/01/30 10:55:45;;;;;;;;;;;;;;;20.48;35.88;102249.69;7266055;19;153538;-75
2023/01/30 10:58:17;;;;;;;;;;;;;;;20.50;36.50;102264.28;7258389;19;153800;-73
2023/01/30 11:00:45;;;;;;;;;;;;;;;20.52;36.23;102262.06;7260047;19;153283;-75
2023/01/30 11:03:15;;;;;;;;;;;;;;;20.52;36.66;102278.91;7256471;19;154141;-74
2023/01/30 11:05:45;;;;;;;;;;;;;;;20.49;36.54;102282.22;7252752;19;153862;-74
2023/01/30 11:08:15;;;;;;;;;;;;;;;20.49;36.32;102284.22;7257496;19;153652;-74
2023/01/30 11:10:42;;;;;;;;;;;;;;;20.46;36.45;102260.34;7254465;19;154117;-75
2023/01/30 11:13:13;;;;;;;;;;;;;;;20.48;36.22;102263.72;7253409;19;154700;-74
2023/01/30 11:15:40;;;;;;;;;;;;;;;20.44;36.64;102259.78;7255274;19;154991;-74
2023/01/30 11:18:08;;;;;;;;;;;;;;;20.46;36.52;102271.56;7260072;19;156063;-75
2023/01/30 11:21:00;;;;;;;;;;;;;;;20.44;36.61;102270.16;7254777;19;154681;-74
2023/01/30 11:23:30;;;;;;;;;;;;;;;20.44;36.33;102273.81;7254665;19;155645;-73
2023/01/30 11:26:00;;;;;;;;;;;;;;;20.42;36.39;102274.09;7254521;19;153878;-74
2023/01/30 11:28:40;;;;;;;;;;;;;;;20.39;36.14;102279.41;7254616;19;153979;-73
2023/01/30 11:31:10;;;;;;;;;;;;;;;20.37;36.44;102265.66;7254010;19;154109;-73
2023/01/30 11:33:39;;;;;;;;;;;;;;;20.39;36.46;102271.00;7252872;19;152643;-73
2023/01/30 11:36:23;;;;;;;;;;;;;;;20.37;36.22;102278.84;7251082;19;154554;-73
2023/01/30 11:38:54;;;;;;;;;;;;;;;20.33;36.53;102284.16;7253116;19;153362;-73
2023/01/30 11:41:23;;;;;;;;;;;;;;;20.32;36.40;102274.03;7260892;19;153811;-73
2023/01/30 11:43:50;;;;;;;;;;;;;;;20.26;36.69;102275.09;7259661;19;153927;-74
2023/01/30 11:46:19;;;;;;;;;;;;;;;20.29;36.54;102276.53;7262082;19;153655;-73
2023/01/30 11:48:49;;;;;;;;;;;;;;;20.25;36.72;102270.63;7260638;19;155077;-73
2023/01/30 11:51:37;;;;;;;;;;;;;;;20.22;36.96;102273.13;7261046;19;155259;-73
2023/01/30 11:54:06;;;;;;;;;;;;;;;20.23;36.91;102272.00;7259902;19;153928;-74
2023/01/30 11:56:38;;;;;;;;;;;;;;;20.21;37.02;102277.06;7260683;19;154658;-73
2023/01/30 11:59:08;;;;;;;;;;;;;;;20.17;36.82;102270.31;7255846;19;154365;-74
2023/01/30 12:01:35;;;;;;;;;;;;;;;20.19;37.13;102276.47;7259403;19;152023;-75
2023/01/30 12:04:05;;;;;;;;;;;;;;;20.17;37.16;102262.72;7267630;19;153468;-73
2023/01/30 12:06:34;;;;;;;;;;;;;;;20.18;36.94;102263.56;7260488;19;154366;-74
2023/01/30 12:09:03;;;;;;;;;;;;;;;20.21;37.11;102263.03;7260800;19;154178;-73
2023/01/30 12:11:33;;;;;;;;;;;;;;;20.19;36.67;102256.84;7257975;19;154050;-73
2023/01/30 12:14:04;;;;;;;;;;;;;;;20.17;36.83;102257.09;7259272;19;153806;-74
2023/01/30 12:16:34;;;;;;;;;;;;;;;20.15;37.18;102258.50;7259575;19;153847;-73
2023/01/30 12:19:05;;;;;;;;;;;;;;;20.11;36.81;102262.97;7258574;19;154165;-73
2023/01/30 12:21:33;;;;;;;;;;;;;;;20.11;36.95;102263.81;7258008;19;153872;-73
2023/01/30 12:24:03;;;;;;;;;;;;;;;20.12;37.35;102273.09;7266806;19;153036;-74
2023/01/30 12:26:35;;;;;;;;;;;;;;;20.10;37.38;102284.56;7258545;19;153759;-74
2023/01/30 12:29:05;;;;;;;;;;;;;;;20.11;36.89;102289.09;7261706;19;153990;-73
2023/01/30 12:31:38;;;;;;;;;;;;;;;20.11;37.23;102296.66;7259344;19;154121;-74
2023/01/30 12:34:07;;;;;;;;;;;;;;;20.07;36.95;102301.97;7260060;19;153326;-76
2023/01/30 12:36:38;;;;;;;;;;;;;;;20.05;37.34;102304.19;7260898;19;154892;-74
2023/01/30 12:39:09;;;;;;;;;;;;;;;20.06;36.93;102279.78;7260078;19;157920;-74
2023/01/30 12:41:39;;;;;;;;;;;;;;;20.03;36.98;102274.72;7259300;19;153933;-74
2023/01/30 12:44:06;;;;;;;;;;;;;;;20.01;37.09;102272.19;7258893;19;154113;-75